To NAV CANADA Home Page Login to a new session Search on AWWS site Feedback and Comments Disclaimer Vers la page française équivalente Tips FAQ What's new on the site To the Forecasts and Observations / NOTAM section To "File a Flight Plan" website Publications and other links Update of the User's profile FIC Telephone Numbers My Weather Data Folder Route Weather Data Regional Weather Data Local Weather Data To the Forecasts and Observations / NOTAM section
Request Generated 08/02/2015 at 12:18:11 UTC . Weather information available at that time is displayed.

METAR/TAF

BURWASH/YT    

METAR CYDB 021200Z AUTO 31006KT 9SM FEW060 SCT220 SCT240 09/07 A3008
RMK SLP207=
METAR CYDB 021100Z AUTO 00000KT 9SM OVC120 07/06 A3006 RMK SLP201=
METAR CYDB 021000Z AUTO 00000KT 9SM BKN120 06/05 A3005 RMK SLP197=

TAF CYDB 021138Z 0212/0224 VRB03KT P6SM BKN120
FM021400 30006KT P6SM BKN040 TEMPO 0214/0218 5SM -SHRA BR SCT010
OVC040
FM021800 31010KT P6SM SCT010 BKN040
RMK FCST BASED ON AUTO OBS. NXT FCST BY 021800Z=
Your time UTC time
Weather data provided by Environment Canada and NAV CANADA